Time;durP1;ratioP1;P1;durP2;ratioP2;P2;SDS_P1;SDS_P2;PMS_P1;PMS_P2;Temp;Humidity;BMP_temperature;BMP_pressure;BME280_temperature;BME280_humidity;BME280_pressure;Samples;Min_cycle;Max_cycle;Signal;HPM_P1;HPM_P2
2022/12/19 00:01:42;;;;;;;;;;;12.90;99.90;;;;;;5023213;28;20355;-80
2022/12/19 00:04:10;;;;;;;;;;;13.00;99.90;;;;;;5020752;28;19914;-85
2022/12/19 00:06:36;;;;;;;;;;;12.90;99.90;;;;;;5017775;28;20014;-80
2022/12/19 00:09:02;;;;;;;;;;;12.90;99.90;;;;;;5016674;28;19965;-80
2022/12/19 00:11:28;;;;;;;;;;;13.00;99.90;;;;;;5016161;28;19948;-85
2022/12/19 00:13:53;;;;;;;;;;;13.10;99.90;;;;;;5014930;28;19949;-81
2022/12/19 00:16:20;;;;;;;;;;;13.10;99.90;;;;;;5013794;28;19913;-80
2022/12/19 00:18:47;;;;;;;;;;;13.10;99.90;;;;;;5014474;28;19980;-80
2022/12/19 00:21:14;;;;;;;;;;;13.00;99.90;;;;;;5014588;28;19909;-80
2022/12/19 00:23:39;;;;;;;;;;;13.10;99.90;;;;;;5013617;28;20467;-79
2022/12/19 00:26:06;;;;;;;;;;;13.10;99.90;;;;;;5014329;28;20009;-79
2022/12/19 00:28:32;;;;;;;;;;;13.10;99.90;;;;;;5013696;28;19910;-79
2022/12/19 00:31:00;;;;;;;;;;;13.00;99.90;;;;;;5014296;28;19936;-80
2022/12/19 00:33:26;;;;;;;;;;;13.10;99.90;;;;;;5013543;28;20259;-80
2022/12/19 00:35:56;;;;;;;;;;;13.10;99.90;;;;;;5012925;28;19909;-80
2022/12/19 00:38:22;;;;;;;;;;;13.00;99.90;;;;;;5013957;28;19983;-80
2022/12/19 00:40:47;;;;;;;;;;;13.00;99.90;;;;;;5013024;28;19918;-85
2022/12/19 00:43:13;;;;;;;;;;;13.00;99.90;;;;;;5013548;28;20283;-80
2022/12/19 00:45:38;;;;;;;;;;;13.10;99.90;;;;;;5012785;28;20270;-81
2022/12/19 00:48:04;;;;;;;;;;;13.10;99.90;;;;;;5013393;28;19914;-79
2022/12/19 00:50:30;;;;;;;;;;;13.20;99.90;;;;;;5012472;28;19997;-86
2022/12/19 00:52:55;;;;;;;;;;;13.20;99.90;;;;;;5012589;28;19939;-80
2022/12/19 00:55:21;;;;;;;;;;;13.20;99.90;;;;;;5011359;28;20060;-80
2022/12/19 00:57:46;;;;;;;;;;;13.20;99.90;;;;;;5012496;28;20150;-80
2022/12/19 01:00:12;;;;;;;;;;;13.20;99.90;;;;;;5012909;28;20016;-80
2022/12/19 01:02:38;;;;;;;;;;;13.20;99.90;;;;;;5012113;28;19989;-80
2022/12/19 01:05:03;;;;;;;;;;;13.30;99.90;;;;;;5012414;28;19921;-79
2022/12/19 01:07:29;;;;;;;;;;;13.30;99.90;;;;;;5012142;28;19913;-84
2022/12/19 01:09:54;;;;;;;;;;;13.30;99.90;;;;;;5012115;28;20020;-80
2022/12/19 01:15:04;;;;;;;;;;;13.30;99.90;;;;;;5012096;28;19916;-79
2022/12/19 01:17:33;;;;;;;;;;;13.30;99.90;;;;;;5010035;28;19909;-85
2022/12/19 01:19:59;;;;;;;;;;;13.20;99.90;;;;;;5012170;28;19909;-81
2022/12/19 01:22:24;;;;;;;;;;;13.30;99.90;;;;;;5012256;28;20382;-84
2022/12/19 01:24:50;;;;;;;;;;;13.20;99.90;;;;;;5011379;28;19913;-82
2022/12/19 01:27:15;;;;;;;;;;;13.20;99.90;;;;;;5012565;28;19960;-80
2022/12/19 01:29:41;;;;;;;;;;;13.20;99.90;;;;;;5012357;28;20382;-79
2022/12/19 01:32:06;;;;;;;;;;;13.20;99.90;;;;;;5012317;28;19910;-82
2022/12/19 01:34:32;;;;;;;;;;;13.10;99.90;;;;;;5011026;28;19913;-83
2022/12/19 01:36:57;;;;;;;;;;;13.00;99.90;;;;;;5011754;28;19921;-83
2022/12/19 01:39:23;;;;;;;;;;;13.10;99.90;;;;;;5011526;28;20255;-83
2022/12/19 01:41:49;;;;;;;;;;;13.00;99.90;;;;;;5015274;28;19914;-81
2022/12/19 01:44:14;;;;;;;;;;;13.00;99.90;;;;;;5014237;28;20053;-82
2022/12/19 01:46:42;;;;;;;;;;;13.00;99.90;;;;;;5015063;28;19913;-84
2022/12/19 01:49:17;;;;;;;;;;;13.00;99.90;;;;;;5015510;28;19917;-83
2022/12/19 01:51:44;;;;;;;;;;;13.00;99.90;;;;;;5013632;28;19920;-82
2022/12/19 01:54:16;;;;;;;;;;;13.20;99.90;;;;;;5015590;28;19909;-82
2022/12/19 01:56:44;;;;;;;;;;;13.20;99.90;;;;;;5015325;28;20347;-83
2022/12/19 01:59:15;;;;;;;;;;;13.20;99.90;;;;;;5015930;28;19925;-82
2022/12/19 02:01:41;;;;;;;;;;;13.30;99.90;;;;;;5015491;28;19909;-82
2022/12/19 02:04:07;;;;;;;;;;;13.20;99.90;;;;;;5015353;28;19914;-83
2022/12/19 02:06:33;;;;;;;;;;;13.20;99.90;;;;;;5015251;28;19917;-84
2022/12/19 02:08:59;;;;;;;;;;;13.20;99.90;;;;;;5015429;28;20374;-82
2022/12/19 02:11:25;;;;;;;;;;;13.10;99.90;;;;;;5015229;28;20370;-82
2022/12/19 02:13:51;;;;;;;;;;;13.10;99.90;;;;;;5015111;28;20008;-83
2022/12/19 02:16:36;;;;;;;;;;;13.10;99.90;;;;;;5015079;28;20400;-82
2022/12/19 02:19:17;;;;;;;;;;;13.20;99.90;;;;;;5014054;28;20016;-82
2022/12/19 02:22:12;;;;;;;;;;;13.20;99.90;;;;;;5014508;28;19955;-83
2022/12/19 02:24:53;;;;;;;;;;;13.20;99.90;;;;;;5004571;28;19921;-82
2022/12/19 02:27:37;;;;;;;;;;;13.30;99.90;;;;;;5014512;28;19920;-82
2022/12/19 02:30:13;;;;;;;;;;;13.30;99.90;;;;;;5014321;28;20032;-82
2022/12/19 02:32:53;;;;;;;;;;;13.40;99.90;;;;;;5014159;28;19980;-83
2022/12/19 02:35:22;;;;;;;;;;;13.40;99.90;;;;;;5014765;28;20370;-82
2022/12/19 02:38:04;;;;;;;;;;;13.40;99.90;;;;;;5013416;28;20374;-82
2022/12/19 02:40:33;;;;;;;;;;;13.40;99.90;;;;;;5014354;28;19913;-81
2022/12/19 02:43:00;;;;;;;;;;;13.40;99.90;;;;;;5013881;28;19960;-81
2022/12/19 02:45:31;;;;;;;;;;;13.30;99.90;;;;;;5014030;28;19920;-82
2022/12/19 02:47:58;;;;;;;;;;;13.40;99.90;;;;;;5014043;28;19967;-82
2022/12/19 02:50:24;;;;;;;;;;;13.40;99.90;;;;;;5014239;28;19909;-81
2022/12/19 02:52:50;;;;;;;;;;;13.40;99.90;;;;;;5013269;28;19909;-82
2022/12/19 02:55:18;;;;;;;;;;;13.40;99.90;;;;;;5013785;28;19917;-81
2022/12/19 02:57:49;;;;;;;;;;;13.50;99.90;;;;;;5013487;28;19913;-82
2022/12/19 03:00:17;;;;;;;;;;;13.50;99.90;;;;;;5014013;28;19995;-82
2022/12/19 03:02:50;;;;;;;;;;;13.50;99.90;;;;;;5013287;28;19913;-82
2022/12/19 03:05:22;;;;;;;;;;;13.50;99.90;;;;;;5013311;28;19914;-81
2022/12/19 03:08:10;;;;;;;;;;;13.50;99.90;;;;;;5013374;28;19953;-82
2022/12/19 03:10:41;;;;;;;;;;;13.50;99.90;;;;;;4994485;28;19979;-84
2022/12/19 03:13:26;;;;;;;;;;;13.60;99.90;;;;;;5014019;28;19950;-82
2022/12/19 03:15:51;;;;;;;;;;;13.50;99.90;;;;;;5013339;28;20032;-82
2022/12/19 03:18:18;;;;;;;;;;;13.50;99.90;;;;;;5013481;28;20011;-82
2022/12/19 03:21:11;;;;;;;;;;;13.60;99.90;;;;;;5013579;28;19952;-82
2022/12/19 03:23:37;;;;;;;;;;;13.60;99.90;;;;;;4997772;28;19916;-84
2022/12/19 03:26:05;;;;;;;;;;;13.60;99.90;;;;;;5013453;28;20012;-81
2022/12/19 03:28:44;;;;;;;;;;;13.60;99.90;;;;;;5013484;28;20362;-81
2022/12/19 03:31:11;;;;;;;;;;;13.60;99.90;;;;;;5013269;28;19964;-81
2022/12/19 03:33:38;;;;;;;;;;;13.50;99.90;;;;;;5012954;28;19909;-83
2022/12/19 03:36:06;;;;;;;;;;;13.50;99.90;;;;;;5012649;28;19921;-82
2022/12/19 03:38:33;;;;;;;;;;;13.50;99.90;;;;;;5013110;28;19913;-81
2022/12/19 03:40:59;;;;;;;;;;;13.50;99.90;;;;;;5013137;28;19917;-82
2022/12/19 03:43:26;;;;;;;;;;;13.60;99.90;;;;;;5013656;28;19909;-81
2022/12/19 03:45:57;;;;;;;;;;;13.60;99.90;;;;;;5011439;28;20004;-81
2022/12/19 03:48:31;;;;;;;;;;;13.60;99.90;;;;;;5011819;28;19916;-81
2022/12/19 03:51:03;;;;;;;;;;;13.70;99.90;;;;;;5012613;28;20072;-80
2022/12/19 03:53:38;;;;;;;;;;;13.70;99.90;;;;;;5012961;28;19910;-81
2022/12/19 03:56:15;;;;;;;;;;;13.70;99.90;;;;;;5012757;28;19913;-80
2022/12/19 03:58:44;;;;;;;;;;;13.60;99.90;;;;;;5012322;28;20389;-81
2022/12/19 04:01:09;;;;;;;;;;;13.70;99.90;;;;;;5012662;28;19972;-81
2022/12/19 04:03:35;;;;;;;;;;;13.70;99.90;;;;;;5012186;28;20371;-78
2022/12/19 04:06:02;;;;;;;;;;;13.60;99.90;;;;;;5010860;28;20040;-78
2022/12/19 04:08:29;;;;;;;;;;;13.60;99.90;;;;;;5012662;28;19984;-79
2022/12/19 04:10:58;;;;;;;;;;;13.60;99.90;;;;;;5013220;28;19921;-79
2022/12/19 04:13:32;;;;;;;;;;;13.60;99.90;;;;;;5013680;28;20008;-80
2022/12/19 04:16:04;;;;;;;;;;;13.70;99.90;;;;;;5014632;28;19916;-79
2022/12/19 04:18:30;;;;;;;;;;;13.70;99.90;;;;;;5013949;28;20415;-80
2022/12/19 04:21:07;;;;;;;;;;;13.70;99.90;;;;;;5016523;28;19914;-80
2022/12/19 04:23:37;;;;;;;;;;;13.70;99.90;;;;;;5032961;28;19909;-82
2022/12/19 04:26:04;;;;;;;;;;;13.80;99.90;;;;;;5032939;28;19912;-80
2022/12/19 04:28:37;;;;;;;;;;;13.80;99.90;;;;;;5031936;28;19964;-82
2022/12/19 04:31:03;;;;;;;;;;;13.80;99.90;;;;;;5023664;28;19932;-78
2022/12/19 04:33:28;;;;;;;;;;;13.90;99.90;;;;;;5021615;28;19917;-79
2022/12/19 04:35:54;;;;;;;;;;;13.80;99.90;;;;;;5016603;28;19910;-82
2022/12/19 04:38:19;;;;;;;;;;;13.70;99.90;;;;;;5012312;28;19964;-80
2022/12/19 04:40:45;;;;;;;;;;;13.80;99.90;;;;;;5011321;28;20374;-81
2022/12/19 04:43:11;;;;;;;;;;;13.80;99.90;;;;;;5012179;28;20298;-82
2022/12/19 04:45:36;;;;;;;;;;;13.70;99.90;;;;;;5012202;28;20008;-81
2022/12/19 04:48:02;;;;;;;;;;;13.70;99.90;;;;;;5011457;28;20167;-81
2022/12/19 04:50:27;;;;;;;;;;;13.80;99.90;;;;;;5011701;28;19917;-80
2022/12/19 04:52:53;;;;;;;;;;;13.80;99.90;;;;;;5011362;28;19909;-80
2022/12/19 04:55:19;;;;;;;;;;;13.80;99.90;;;;;;5012332;28;19936;-80
2022/12/19 04:57:44;;;;;;;;;;;13.80;99.90;;;;;;5011448;28;20274;-81
2022/12/19 05:00:10;;;;;;;;;;;13.80;99.90;;;;;;5011627;28;19976;-80
2022/12/19 05:02:36;;;;;;;;;;;13.80;99.90;;;;;;5011933;28;19964;-80
2022/12/19 05:05:02;;;;;;;;;;;13.80;99.90;;;;;;5011117;28;19913;-79
2022/12/19 05:07:28;;;;;;;;;;;13.80;99.90;;;;;;5011658;28;20004;-79
2022/12/19 05:09:53;;;;;;;;;;;13.90;99.90;;;;;;5011387;28;19913;-80
2022/12/19 05:12:19;;;;;;;;;;;13.90;99.90;;;;;;5011659;28;20362;-80
2022/12/19 05:14:44;;;;;;;;;;;13.90;99.90;;;;;;5011845;28;19909;-84
2022/12/19 05:17:10;;;;;;;;;;;13.90;99.90;;;;;;5015089;28;19955;-80
2022/12/19 05:19:35;;;;;;;;;;;13.90;99.90;;;;;;5014348;28;20355;-79
2022/12/19 05:22:01;;;;;;;;;;;14.00;99.90;;;;;;5015241;28;20057;-80
2022/12/19 05:24:26;;;;;;;;;;;14.00;99.90;;;;;;5015376;28;19914;-79
2022/12/19 05:26:52;;;;;;;;;;;14.00;99.90;;;;;;5014827;28;19931;-80
2022/12/19 05:29:18;;;;;;;;;;;14.00;99.90;;;;;;5014373;28;19936;-81
2022/12/19 05:31:43;;;;;;;;;;;14.00;99.90;;;;;;5015266;28;20347;-82
2022/12/19 05:34:09;;;;;;;;;;;14.00;99.90;;;;;;5014702;28;20051;-80
2022/12/19 05:36:34;;;;;;;;;;;14.00;99.90;;;;;;5015039;28;19928;-80
2022/12/19 05:39:00;;;;;;;;;;;14.00;99.90;;;;;;5014657;28;20264;-80
2022/12/19 05:41:26;;;;;;;;;;;13.90;99.90;;;;;;5015412;28;20007;-81
2022/12/19 05:43:53;;;;;;;;;;;13.90;99.90;;;;;;5014825;28;20355;-81
2022/12/19 05:46:19;;;;;;;;;;;13.90;99.90;;;;;;5014874;28;19914;-81
2022/12/19 05:48:45;;;;;;;;;;;13.90;99.90;;;;;;5015388;28;19955;-84
2022/12/19 05:51:11;;;;;;;;;;;14.00;99.90;;;;;;5014949;28;19921;-80
2022/12/19 05:53:37;;;;;;;;;;;14.00;99.90;;;;;;5015116;28;19910;-80
2022/12/19 05:56:03;;;;;;;;;;;14.10;99.90;;;;;;5013233;28;19913;-80
2022/12/19 05:58:30;;;;;;;;;;;14.10;99.90;;;;;;5014880;28;20219;-80
2022/12/19 06:01:00;;;;;;;;;;;14.10;99.90;;;;;;5014579;28;19944;-81
2022/12/19 06:03:26;;;;;;;;;;;14.00;99.90;;;;;;5013356;28;20388;-80
2022/12/19 06:05:52;;;;;;;;;;;14.00;99.90;;;;;;5014204;28;19921;-81
2022/12/19 06:08:17;;;;;;;;;;;14.00;99.90;;;;;;5014329;28;19921;-80
2022/12/19 06:10:43;;;;;;;;;;;14.00;99.90;;;;;;5014693;28;20063;-80
2022/12/19 06:13:08;;;;;;;;;;;14.00;99.90;;;;;;5014425;28;20399;-80
2022/12/19 06:15:34;;;;;;;;;;;13.90;99.90;;;;;;5014574;28;20244;-79
2022/12/19 06:17:59;;;;;;;;;;;13.90;99.90;;;;;;5014017;28;19948;-80
2022/12/19 06:20:25;;;;;;;;;;;13.90;99.90;;;;;;5014368;28;19917;-80
2022/12/19 06:22:51;;;;;;;;;;;13.90;99.90;;;;;;5014121;28;19913;-82
2022/12/19 06:25:16;;;;;;;;;;;13.90;99.90;;;;;;5014190;28;20021;-81
2022/12/19 06:27:42;;;;;;;;;;;13.90;99.90;;;;;;5014362;28;20004;-80
2022/12/19 06:30:08;;;;;;;;;;;13.90;99.90;;;;;;5013796;28;20047;-80
2022/12/19 06:32:33;;;;;;;;;;;13.90;99.90;;;;;;5013868;28;19917;-80
2022/12/19 06:34:59;;;;;;;;;;;13.90;99.90;;;;;;5014301;28;19910;-81
2022/12/19 06:37:24;;;;;;;;;;;13.90;99.90;;;;;;5013418;28;19928;-81
2022/12/19 06:39:50;;;;;;;;;;;13.90;99.90;;;;;;5014261;28;20008;-85
2022/12/19 06:42:21;;;;;;;;;;;13.90;99.90;;;;;;5013946;28;19909;-81
2022/12/19 06:44:47;;;;;;;;;;;14.00;99.90;;;;;;5015462;28;19955;-80
2022/12/19 06:47:13;;;;;;;;;;;13.90;99.90;;;;;;5013444;28;19917;-81
2022/12/19 06:49:38;;;;;;;;;;;13.90;99.90;;;;;;5013599;28;19910;-81
2022/12/19 06:52:04;;;;;;;;;;;13.90;99.90;;;;;;5013524;28;19920;-81
2022/12/19 06:54:30;;;;;;;;;;;13.80;99.90;;;;;;5013275;28;19913;-79
2022/12/19 06:56:55;;;;;;;;;;;13.70;99.90;;;;;;5013255;28;19963;-80
2022/12/19 06:59:21;;;;;;;;;;;13.70;99.90;;;;;;5013778;28;19910;-79
2022/12/19 07:01:46;;;;;;;;;;;13.60;99.90;;;;;;5013499;28;19919;-79
2022/12/19 07:04:14;;;;;;;;;;;13.60;99.90;;;;;;5013164;28;19917;-81
2022/12/19 07:06:40;;;;;;;;;;;13.80;99.90;;;;;;5013585;28;19913;-79
2022/12/19 07:09:06;;;;;;;;;;;13.80;99.90;;;;;;5013254;28;19984;-80
2022/12/19 07:11:31;;;;;;;;;;;13.80;99.90;;;;;;5013407;28;19960;-80
2022/12/19 07:13:57;;;;;;;;;;;13.80;99.90;;;;;;5012928;28;19959;-79
2022/12/19 07:16:23;;;;;;;;;;;13.70;99.90;;;;;;5013002;28;19913;-81
2022/12/19 07:18:49;;;;;;;;;;;13.70;99.90;;;;;;5013395;28;19921;-80
2022/12/19 07:21:15;;;;;;;;;;;13.70;99.90;;;;;;5012871;28;20453;-80
2022/12/19 07:23:41;;;;;;;;;;;13.70;99.90;;;;;;5013010;28;19909;-80
2022/12/19 07:26:07;;;;;;;;;;;13.70;99.90;;;;;;5012589;28;19913;-80
2022/12/19 07:28:33;;;;;;;;;;;13.70;99.90;;;;;;5012993;28;19966;-80
2022/12/19 07:30:59;;;;;;;;;;;13.60;99.90;;;;;;5012699;28;19963;-78
2022/12/19 07:33:24;;;;;;;;;;;13.60;99.90;;;;;;5013120;28;19941;-77
2022/12/19 07:35:51;;;;;;;;;;;13.70;99.90;;;;;;5012574;28;19953;-78
2022/12/19 07:38:16;;;;;;;;;;;13.70;99.90;;;;;;5011709;28;20055;-78
2022/12/19 07:40:42;;;;;;;;;;;13.70;99.90;;;;;;5013068;28;20004;-78
2022/12/19 07:43:08;;;;;;;;;;;13.70;99.90;;;;;;5012695;28;19992;-78
2022/12/19 07:45:35;;;;;;;;;;;13.70;99.90;;;;;;5012888;28;20304;-78
2022/12/19 07:48:01;;;;;;;;;;;13.80;99.90;;;;;;5012302;28;19919;-79
2022/12/19 07:50:27;;;;;;;;;;;13.80;99.90;;;;;;5012591;28;20272;-78
2022/12/19 07:52:53;;;;;;;;;;;13.80;99.90;;;;;;5012851;28;19928;-79
2022/12/19 07:55:19;;;;;;;;;;;13.80;99.90;;;;;;5012114;28;19909;-78
2022/12/19 07:57:44;;;;;;;;;;;13.80;99.90;;;;;;5012236;28;19909;-80
2022/12/19 08:00:10;;;;;;;;;;;13.70;99.90;;;;;;5012385;28;19910;-80
2022/12/19 08:02:36;;;;;;;;;;;13.70;99.90;;;;;;5012570;28;19910;-79
2022/12/19 08:05:02;;;;;;;;;;;13.70;99.90;;;;;;5012156;28;19913;-81
2022/12/19 08:07:27;;;;;;;;;;;13.70;99.90;;;;;;5012489;28;20367;-79
2022/12/19 08:09:53;;;;;;;;;;;13.70;99.90;;;;;;5012762;28;19919;-80
2022/12/19 08:12:18;;;;;;;;;;;13.70;99.90;;;;;;5012462;28;19909;-80
2022/12/19 08:14:44;;;;;;;;;;;13.70;99.90;;;;;;5012301;28;19909;-79
2022/12/19 08:17:09;;;;;;;;;;;13.70;99.90;;;;;;5012317;28;19920;-80
2022/12/19 08:19:35;;;;;;;;;;;13.70;99.90;;;;;;5010878;28;19910;-79
2022/12/19 08:22:01;;;;;;;;;;;13.70;99.90;;;;;;5011870;28;19913;-80
2022/12/19 08:24:26;;;;;;;;;;;13.70;99.90;;;;;;5012277;28;19917;-76
2022/12/19 08:26:52;;;;;;;;;;;13.70;99.90;;;;;;5011043;28;19913;-81
2022/12/19 08:29:18;;;;;;;;;;;13.60;99.90;;;;;;5012637;28;20058;-80
2022/12/19 08:31:44;;;;;;;;;;;13.70;99.90;;;;;;5012038;28;20334;-78
2022/12/19 08:34:09;;;;;;;;;;;13.70;99.90;;;;;;5011932;28;19910;-78
2022/12/19 08:36:36;;;;;;;;;;;13.70;99.90;;;;;;5010420;28;19925;-78
2022/12/19 08:39:02;;;;;;;;;;;13.80;99.90;;;;;;5012618;28;19917;-80
2022/12/19 08:41:27;;;;;;;;;;;13.80;99.90;;;;;;5012646;28;19910;-80
2022/12/19 08:43:54;;;;;;;;;;;13.80;99.90;;;;;;5012658;28;20008;-81
2022/12/19 08:46:19;;;;;;;;;;;13.80;99.90;;;;;;5012506;28;19913;-80
2022/12/19 08:48:45;;;;;;;;;;;13.90;99.90;;;;;;5012541;28;20008;-80
2022/12/19 08:51:11;;;;;;;;;;;13.90;99.90;;;;;;5012597;28;19910;-80
2022/12/19 08:53:38;;;;;;;;;;;13.90;99.90;;;;;;5012650;28;20017;-80
2022/12/19 08:56:06;;;;;;;;;;;13.90;99.90;;;;;;5012473;28;20001;-80
2022/12/19 08:58:33;;;;;;;;;;;13.90;99.90;;;;;;5012300;28;19933;-80
2022/12/19 09:01:00;;;;;;;;;;;13.90;99.90;;;;;;5012148;28;19972;-82
2022/12/19 09:03:25;;;;;;;;;;;14.00;99.90;;;;;;5012446;28;19932;-79
2022/12/19 09:05:55;;;;;;;;;;;14.00;99.90;;;;;;5011992;28;20344;-79
2022/12/19 09:08:20;;;;;;;;;;;14.00;99.90;;;;;;5011781;28;19914;-80
2022/12/19 09:10:46;;;;;;;;;;;14.00;99.90;;;;;;5012228;28;19909;-80
2022/12/19 09:13:11;;;;;;;;;;;14.10;99.90;;;;;;5014009;28;20247;-80
2022/12/19 09:15:37;;;;;;;;;;;14.20;99.90;;;;;;5014112;28;19910;-79
2022/12/19 09:18:03;;;;;;;;;;;14.20;99.90;;;;;;5018933;28;19913;-81
2022/12/19 09:20:28;;;;;;;;;;;14.20;99.90;;;;;;5018256;28;20286;-80
2022/12/19 09:22:54;;;;;;;;;;;14.20;99.90;;;;;;5013263;28;19910;-79
2022/12/19 09:25:19;;;;;;;;;;;14.30;99.90;;;;;;5016938;28;19968;-80
2022/12/19 09:27:45;;;;;;;;;;;14.30;99.90;;;;;;5019947;28;19925;-80
2022/12/19 09:30:11;;;;;;;;;;;14.30;99.90;;;;;;5034937;28;19902;-81
2022/12/19 09:32:37;;;;;;;;;;;14.30;99.90;;;;;;5035040;28;19944;-81
2022/12/19 09:35:03;;;;;;;;;;;14.30;99.90;;;;;;5035135;28;19913;-86
2022/12/19 09:37:29;;;;;;;;;;;14.20;99.90;;;;;;5035567;28;19980;-81
2022/12/19 09:39:55;;;;;;;;;;;14.20;99.90;;;;;;5035255;28;19905;-80
2022/12/19 09:42:28;;;;;;;;;;;14.20;99.90;;;;;;5034995;28;19917;-81
2022/12/19 09:45:07;;;;;;;;;;;14.20;99.90;;;;;;5035306;28;19932;-81
2022/12/19 09:47:33;;;;;;;;;;;14.30;99.90;;;;;;5035121;28;19925;-81
2022/12/19 09:50:00;;;;;;;;;;;14.40;99.90;;;;;;5029456;28;20414;-81
2022/12/19 09:52:32;;;;;;;;;;;14.40;99.90;;;;;;5018101;28;19913;-79
2022/12/19 09:55:00;;;;;;;;;;;14.40;99.90;;;;;;5019467;28;19985;-80
2022/12/19 09:57:29;;;;;;;;;;;14.40;99.90;;;;;;5016501;28;19917;-80
2022/12/19 10:00:14;;;;;;;;;;;14.40;99.90;;;;;;5017046;28;19910;-80
2022/12/19 10:02:43;;;;;;;;;;;14.40;99.90;;;;;;5018640;28;19933;-79
2022/12/19 10:05:21;;;;;;;;;;;14.50;99.90;;;;;;5018999;28;20343;-81
2022/12/19 10:07:47;;;;;;;;;;;14.50;99.90;;;;;;5017735;28;19914;-81
2022/12/19 10:10:17;;;;;;;;;;;14.50;99.90;;;;;;5017910;28;20362;-81
2022/12/19 10:12:54;;;;;;;;;;;14.60;99.90;;;;;;5017536;28;19909;-80
2022/12/19 10:15:31;;;;;;;;;;;14.60;99.90;;;;;;5016715;28;19917;-80
2022/12/19 10:18:07;;;;;;;;;;;14.60;99.90;;;;;;5016479;28;20351;-80
2022/12/19 10:20:37;;;;;;;;;;;14.70;99.90;;;;;;5017677;28;19929;-82
2022/12/19 10:23:21;;;;;;;;;;;14.60;99.90;;;;;;5016815;28;20004;-84
2022/12/19 10:25:47;;;;;;;;;;;14.70;99.90;;;;;;5016784;28;19924;-80
2022/12/19 10:28:33;;;;;;;;;;;14.60;99.90;;;;;;5016171;28;20212;-81
2022/12/19 10:31:01;;;;;;;;;;;14.60;99.90;;;;;;4995322;28;20373;-82
2022/12/19 10:33:37;;;;;;;;;;;14.60;99.90;;;;;;5016179;28;20011;-81
2022/12/19 10:36:04;;;;;;;;;;;14.50;99.90;;;;;;5016476;28;19914;-86
2022/12/19 10:38:35;;;;;;;;;;;14.50;99.90;;;;;;5016399;28;19916;-82
2022/12/19 10:41:01;;;;;;;;;;;14.40;99.90;;;;;;5015710;28;20044;-85
2022/12/19 10:43:35;;;;;;;;;;;14.30;99.90;;;;;;5015305;28;19916;-82
2022/12/19 10:46:09;;;;;;;;;;;14.20;99.90;;;;;;5015799;28;19953;-82
2022/12/19 10:48:35;;;;;;;;;;;14.20;99.90;;;;;;5015276;28;19933;-80
2022/12/19 10:51:00;;;;;;;;;;;14.10;99.90;;;;;;5015775;28;19914;-84
2022/12/19 10:53:27;;;;;;;;;;;14.10;99.90;;;;;;5015588;28;19992;-83
2022/12/19 10:55:54;;;;;;;;;;;14.10;99.90;;;;;;5015744;28;19913;-83
2022/12/19 10:58:24;;;;;;;;;;;14.20;99.90;;;;;;5015447;28;19913;-83
2022/12/19 11:00:52;;;;;;;;;;;14.30;99.90;;;;;;5015850;28;19932;-84
2022/12/19 11:03:18;;;;;;;;;;;14.30;99.90;;;;;;5015534;28;19913;-84
2022/12/19 11:05:54;;;;;;;;;;;14.30;99.90;;;;;;5016029;28;19958;-83
2022/12/19 11:08:23;;;;;;;;;;;14.20;99.90;;;;;;5014692;28;19949;-83
2022/12/19 11:10:54;;;;;;;;;;;14.20;99.90;;;;;;5013720;28;19921;-83
2022/12/19 11:13:20;;;;;;;;;;;14.10;99.90;;;;;;5013870;28;19916;-84
2022/12/19 11:15:47;;;;;;;;;;;14.10;99.90;;;;;;5014509;28;19909;-84
2022/12/19 11:18:13;;;;;;;;;;;14.00;99.90;;;;;;5013055;28;19913;-85
2022/12/19 11:20:38;;;;;;;;;;;14.00;99.90;;;;;;5015305;28;20370;-86
2022/12/19 11:23:04;;;;;;;;;;;14.00;99.90;;;;;;5014338;28;20012;-86
2022/12/19 11:25:33;;;;;;;;;;;13.90;99.90;;;;;;5013162;28;19939;-78
2022/12/19 11:28:02;;;;;;;;;;;13.90;99.90;;;;;;5014460;28;19941;-79
2022/12/19 11:30:30;;;;;;;;;;;13.90;99.90;;;;;;5013064;28;20011;-79
2022/12/19 11:33:07;;;;;;;;;;;13.90;99.90;;;;;;5013149;28;19999;-84
2022/12/19 11:35:43;;;;;;;;;;;13.80;99.90;;;;;;5014439;28;20339;-85
2022/12/19 11:38:11;;;;;;;;;;;13.80;99.90;;;;;;5013637;28;19928;-85
2022/12/19 11:40:43;;;;;;;;;;;13.80;99.90;;;;;;5014030;28;19921;-84
2022/12/19 11:43:12;;;;;;;;;;;13.80;99.90;;;;;;5012625;28;19992;-85
2022/12/19 11:45:55;;;;;;;;;;;13.80;99.90;;;;;;5013636;28;20300;-86
2022/12/19 11:48:21;;;;;;;;;;;13.80;99.90;;;;;;5013996;28;19924;-88
2022/12/19 11:51:02;;;;;;;;;;;13.90;99.90;;;;;;5013324;28;20004;-87
2022/12/19 11:53:28;;;;;;;;;;;14.00;99.90;;;;;;5012803;28;20446;-88
2022/12/19 11:55:59;;;;;;;;;;;14.10;99.90;;;;;;5013310;28;19914;-86
2022/12/19 11:58:27;;;;;;;;;;;14.30;99.90;;;;;;5013154;28;19906;-85
2022/12/19 12:00:57;;;;;;;;;;;14.30;99.90;;;;;;5013129;28;20334;-85
2022/12/19 12:03:41;;;;;;;;;;;14.30;99.90;;;;;;5012924;28;20334;-82
2022/12/19 12:06:11;;;;;;;;;;;14.30;99.90;;;;;;5012124;28;19965;-84
2022/12/19 12:08:39;;;;;;;;;;;14.20;99.90;;;;;;5012531;28;19956;-83
2022/12/19 12:11:04;;;;;;;;;;;14.20;99.90;;;;;;5011708;28;20331;-85
2022/12/19 12:13:45;;;;;;;;;;;14.10;99.90;;;;;;5012288;28;19917;-81
2022/12/19 12:16:12;;;;;;;;;;;14.10;99.90;;;;;;5011816;28;19914;-80
2022/12/19 12:18:40;;;;;;;;;;;14.10;99.90;;;;;;5012363;28;19909;-81
2022/12/19 12:21:21;;;;;;;;;;;14.10;99.90;;;;;;5012111;28;20361;-85
2022/12/19 12:24:06;;;;;;;;;;;14.20;99.90;;;;;;5012113;28;19956;-81
2022/12/19 12:26:46;;;;;;;;;;;14.20;99.90;;;;;;5005135;28;19921;-81
2022/12/19 12:29:18;;;;;;;;;;;14.30;99.90;;;;;;5011990;28;19937;-81
2022/12/19 12:31:43;;;;;;;;;;;14.30;99.90;;;;;;5011540;28;19914;-81
2022/12/19 12:34:27;;;;;;;;;;;14.40;99.90;;;;;;5011093;28;20282;-82
2022/12/19 12:36:59;;;;;;;;;;;14.40;99.90;;;;;;5011581;28;19921;-81
2022/12/19 12:39:34;;;;;;;;;;;14.40;99.90;;;;;;5009868;28;19913;-80
2022/12/19 12:42:10;;;;;;;;;;;14.40;99.90;;;;;;5011734;28;19909;-81
2022/12/19 12:44:37;;;;;;;;;;;14.50;99.90;;;;;;5010115;28;19935;-80
2022/12/19 12:47:21;;;;;;;;;;;14.50;99.90;;;;;;5010639;28;20270;-81
2022/12/19 12:49:50;;;;;;;;;;;14.50;99.90;;;;;;5011391;28;19992;-80
2022/12/19 12:52:19;;;;;;;;;;;14.50;99.90;;;;;;5010683;28;19910;-80
2022/12/19 12:54:46;;;;;;;;;;;14.50;99.90;;;;;;5009715;28;20286;-80
2022/12/19 12:57:16;;;;;;;;;;;14.40;99.90;;;;;;5010788;28;19914;-80
2022/12/19 12:59:44;;;;;;;;;;;14.40;99.90;;;;;;5010727;28;20003;-79
2022/12/19 13:02:19;;;;;;;;;;;14.40;99.90;;;;;;5011263;28;20048;-80
2022/12/19 13:04:58;;;;;;;;;;;14.50;99.90;;;;;;5009554;28;19913;-79
2022/12/19 13:07:28;;;;;;;;;;;14.50;99.90;;;;;;5010389;28;20088;-79
2022/12/19 13:10:23;;;;;;;;;;;14.60;99.90;;;;;;5010945;28;20075;-79
2022/12/19 13:12:59;;;;;;;;;;;14.60;99.90;;;;;;5002440;28;19919;-78
2022/12/19 13:15:28;;;;;;;;;;;14.70;99.90;;;;;;5010440;28;19916;-80
2022/12/19 13:17:54;;;;;;;;;;;14.60;99.90;;;;;;5011192;28;20016;-79
2022/12/19 13:20:22;;;;;;;;;;;14.60;99.90;;;;;;5010884;28;20006;-79
2022/12/19 13:22:59;;;;;;;;;;;14.50;99.90;;;;;;5011730;28;20212;-80
2022/12/19 13:25:25;;;;;;;;;;;14.50;99.90;;;;;;5010443;28;20339;-80
2022/12/19 13:28:00;;;;;;;;;;;14.40;99.90;;;;;;5010842;28;19913;-79
2022/12/19 13:30:27;;;;;;;;;;;14.30;99.90;;;;;;5010936;28;19913;-86
2022/12/19 13:32:53;;;;;;;;;;;14.20;99.90;;;;;;5012023;28;19963;-85
2022/12/19 13:35:18;;;;;;;;;;;13.80;99.90;;;;;;5011464;28;19910;-81
2022/12/19 13:37:47;;;;;;;;;;;13.40;99.90;;;;;;5014585;28;19922;-84
2022/12/19 13:40:15;;;;;;;;;;;13.20;99.90;;;;;;5014761;28;19964;-85
2022/12/19 13:45:38;;;;;;;;;;;12.80;99.90;;;;;;5014963;28;19920;-86
2022/12/19 13:48:04;;;;;;;;;;;12.70;99.90;;;;;;5015081;28;20320;-85
2022/12/19 13:50:36;;;;;;;;;;;12.60;99.90;;;;;;5015160;28;19910;-85
2022/12/19 13:53:07;;;;;;;;;;;12.50;99.90;;;;;;5015215;28;19909;-84
2022/12/19 13:55:33;;;;;;;;;;;12.30;99.90;;;;;;5015017;28;19964;-84
2022/12/19 13:58:02;;;;;;;;;;;12.20;99.90;;;;;;5015538;28;19944;-83
2022/12/19 14:00:39;;;;;;;;;;;12.10;99.90;;;;;;5013664;28;20377;-83
2022/12/19 14:03:10;;;;;;;;;;;12.10;99.90;;;;;;5015407;28;19964;-83
2022/12/19 14:05:39;;;;;;;;;;;12.10;99.90;;;;;;5015254;28;19913;-83
2022/12/19 14:08:06;;;;;;;;;;;12.00;99.90;;;;;;5015243;28;19914;-82
2022/12/19 14:10:33;;;;;;;;;;;12.10;99.90;;;;;;5015252;28;19920;-83
2022/12/19 14:15:46;;;;;;;;;;;12.10;99.90;;;;;;5014819;28;19916;-81
2022/12/19 14:18:22;;;;;;;;;;;12.00;99.90;;;;;;5014900;28;20333;-82
2022/12/19 14:20:48;;;;;;;;;;;12.00;99.90;;;;;;5014734;28;19909;-82
2022/12/19 14:23:14;;;;;;;;;;;11.90;99.90;;;;;;5014973;28;19929;-82
2022/12/19 14:25:51;;;;;;;;;;;11.80;99.90;;;;;;5015208;28;20351;-82
2022/12/19 14:28:19;;;;;;;;;;;11.80;99.90;;;;;;5015523;28;19960;-82
2022/12/19 14:30:50;;;;;;;;;;;11.80;99.90;;;;;;5015171;28;19913;-82
2022/12/19 14:33:17;;;;;;;;;;;11.80;99.90;;;;;;5015167;28;20056;-81